Los Angeles, California
Traffic Map
Current Weather Conditions
Los Angeles, California
Clear
Clear
12°
Feels Like: 12°
Wind Chill: 12° Ceiling: Unl
Heat Index: 12° Visibility: 10mi
Dew Point: Wind: 3mph
Humidity: 64% Direction: 30° (NNE)
Pressure: 30.07in Gusts: 0mph
Raw Report DataKCQT 221347Z AUTO 03003KT 10SM CLR 12/06 A3007 RMK AO2 SLP183 T01220056
Traffic Incident Summary
Active as of:
Severity:
Category:
InformationThere was an issue retrieving the traffic information for this location. Please try a different location or try again shortly.
Advertisements
Track Severe Weather on mobile